Time;durP1;ratioP1;P1;durP2;ratioP2;P2;SDS_P1;SDS_P2;PMS_P1;PMS_P2;Temp;Humidity;BMP_temperature;BMP_pressure;BME280_temperature;BME280_humidity;BME280_pressure;Samples;Min_cycle;Max_cycle;Signal;HPM_P1;HPM_P2
2020/12/02 00:00:06;;;;;;;11.30;8.87;;;;;;;;;;5026852;28;20186;-74
2020/12/02 00:02:35;;;;;;;17.57;9.17;;;;;;;;;;5027962;28;20195;-75
2020/12/02 00:05:02;;;;;;;12.60;10.00;;;;;;;;;;5029998;28;20213;-75
2020/12/02 00:07:28;;;;;;;13.23;9.20;;;;;;;;;;5026394;28;20262;-75
2020/12/02 00:09:53;;;;;;;11.30;7.90;;;;;;;;;;5024262;28;20658;-75
2020/12/02 00:12:18;;;;;;;10.30;8.47;;;;;;;;;;5033642;28;20210;-75
2020/12/02 00:14:44;;;;;;;11.93;9.67;;;;;;;;;;5028266;28;20217;-75
2020/12/02 00:17:16;;;;;;;11.50;8.80;;;;;;;;;;5028422;28;20924;-75
2020/12/02 00:19:41;;;;;;;13.47;9.43;;;;;;;;;;5025942;28;20182;-75
2020/12/02 00:22:08;;;;;;;11.30;8.27;;;;;;;;;;5031825;28;20267;-75
2020/12/02 00:24:34;;;;;;;13.10;9.10;;;;;;;;;;5027815;28;20178;-75
2020/12/02 00:27:00;;;;;;;12.80;9.77;;;;;;;;;;5030347;28;20235;-75
2020/12/02 00:29:25;;;;;;;17.80;10.00;;;;;;;;;;5022125;28;20182;-75
2020/12/02 00:31:50;;;;;;;11.47;9.57;;;;;;;;;;5026438;28;20189;-74
2020/12/02 00:34:15;;;;;;;12.23;8.60;;;;;;;;;;5027780;28;20774;-75
2020/12/02 00:36:41;;;;;;;12.73;9.03;;;;;;;;;;5025901;28;20182;-75
2020/12/02 00:39:06;;;;;;;13.33;9.07;;;;;;;;;;5023630;28;20724;-75
2020/12/02 00:41:31;;;;;;;16.33;10.53;;;;;;;;;;5025660;28;20736;-75
2020/12/02 00:43:56;;;;;;;14.87;10.00;;;;;;;;;;5023911;28;20181;-75
2020/12/02 00:46:21;;;;;;;12.27;8.70;;;;;;;;;;5022017;28;20176;-75
2020/12/02 00:48:50;;;;;;;13.30;9.40;;;;;;;;;;5027726;28;20644;-75
2020/12/02 00:51:15;;;;;;;13.87;9.47;;;;;;;;;;5026980;28;20189;-75
2020/12/02 00:53:40;;;;;;;14.10;10.13;;;;;;;;;;5029518;28;20207;-75
2020/12/02 00:56:08;;;;;;;14.00;9.10;;;;;;;;;;5023366;28;22279;-76
2020/12/02 00:58:42;;;;;;;15.43;10.57;;;;;;;;;;5032177;28;20689;-76
2020/12/02 01:01:08;;;;;;;14.03;10.17;;;;;;;;;;5035337;28;20185;-75
2020/12/02 01:03:34;;;;;;;11.57;9.07;;;;;;;;;;5031252;28;20498;-75
2020/12/02 01:06:00;;;;;;;13.77;10.60;;;;;;;;;;5028308;28;20191;-75
2020/12/02 01:08:33;;;;;;;16.30;9.80;;;;;;;;;;5037195;28;20189;-75
2020/12/02 01:11:02;;;;;;;13.57;9.10;;;;;;;;;;5044535;28;20255;-75
2020/12/02 01:13:30;;;;;;;12.83;8.93;;;;;;;;;;5041569;28;20213;-75
2020/12/02 01:15:56;;;;;;;16.47;10.20;;;;;;;;;;5039405;28;20236;-75
2020/12/02 01:18:23;;;;;;;13.20;10.23;;;;;;;;;;5025720;28;20186;-75
2020/12/02 01:21:07;;;;;;;16.80;10.23;;;;;;;;;;5026820;28;20221;-76
2020/12/02 01:23:33;;;;;;;12.60;10.20;;;;;;;;;;5028626;28;20279;-75
2020/12/02 01:25:59;;;;;;;14.37;10.33;;;;;;;;;;5026325;28;20268;-75
2020/12/02 01:28:27;;;;;;;14.67;9.33;;;;;;;;;;5027477;28;20250;-76
2020/12/02 01:30:53;;;;;;;15.10;10.83;;;;;;;;;;5043696;28;20185;-76
2020/12/02 01:33:18;;;;;;;14.53;10.50;;;;;;;;;;5028216;28;20961;-76
2020/12/02 01:35:45;;;;;;;16.03;11.10;;;;;;;;;;5026724;28;20186;-75
2020/12/02 01:38:11;;;;;;;16.23;10.70;;;;;;;;;;5040130;28;20250;-76
2020/12/02 01:40:37;;;;;;;15.47;11.17;;;;;;;;;;5024748;28;20197;-75
2020/12/02 01:43:03;;;;;;;20.90;12.33;;;;;;;;;;5026289;28;20288;-75
2020/12/02 01:45:30;;;;;;;16.17;11.30;;;;;;;;;;5026152;28;20220;-75
2020/12/02 01:48:14;;;;;;;15.80;10.93;;;;;;;;;;5027986;28;20308;-75
2020/12/02 01:50:43;;;;;;;16.03;11.13;;;;;;;;;;5025484;28;20186;-75
2020/12/02 01:53:12;;;;;;;17.70;12.00;;;;;;;;;;5027252;28;20594;-74
2020/12/02 01:55:42;;;;;;;16.37;11.13;;;;;;;;;;5024629;28;20567;-75
2020/12/02 01:58:12;;;;;;;15.43;10.43;;;;;;;;;;5026781;28;20177;-75
2020/12/02 02:00:39;;;;;;;15.40;10.20;;;;;;;;;;5026643;28;20181;-75
2020/12/02 02:03:14;;;;;;;16.23;11.03;;;;;;;;;;5023967;28;20202;-75
2020/12/02 02:06:00;;;;;;;15.13;11.37;;;;;;;;;;5027878;28;20671;-75
2020/12/02 02:08:29;;;;;;;12.90;9.57;;;;;;;;;;5024949;28;20272;-74
2020/12/02 02:10:56;;;;;;;14.17;8.93;;;;;;;;;;5026596;28;20169;-75
2020/12/02 02:13:40;;;;;;;17.10;11.10;;;;;;;;;;5029835;28;20981;-74
2020/12/02 02:16:05;;;;;;;13.60;10.00;;;;;;;;;;5030450;28;20235;-74
2020/12/02 02:18:30;;;;;;;13.23;10.37;;;;;;;;;;5027547;28;20173;-74
2020/12/02 02:21:01;;;;;;;14.70;10.43;;;;;;;;;;5026067;28;20510;-75
2020/12/02 02:23:27;;;;;;;21.70;11.30;;;;;;;;;;5030380;28;20235;-75
2020/12/02 02:26:18;;;;;;;18.57;10.10;;;;;;;;;;5033842;28;20210;-75
2020/12/02 02:28:47;;;;;;;16.73;11.70;;;;;;;;;;5032911;28;21104;-74
2020/12/02 02:31:15;;;;;;;17.27;11.43;;;;;;;;;;5029543;28;20265;-74
2020/12/02 02:33:41;;;;;;;19.77;10.97;;;;;;;;;;5030216;28;20205;-75
2020/12/02 02:36:09;;;;;;;16.33;11.07;;;;;;;;;;5034318;28;20178;-74
2020/12/02 02:38:34;;;;;;;16.10;11.03;;;;;;;;;;5026130;28;20193;-75
2020/12/02 02:40:59;;;;;;;18.33;11.93;;;;;;;;;;5028796;28;20690;-74
2020/12/02 02:43:24;;;;;;;17.17;12.90;;;;;;;;;;5027341;28;20272;-75
2020/12/02 02:45:49;;;;;;;16.03;11.53;;;;;;;;;;5028962;28;20177;-74
2020/12/02 02:48:14;;;;;;;17.75;11.13;;;;;;;;;;5030714;28;20174;-74
2020/12/02 02:50:39;;;;;;;19.97;12.27;;;;;;;;;;5029689;28;21184;-74
2020/12/02 02:53:13;;;;;;;16.83;11.55;;;;;;;;;;5028675;28;20221;-74
2020/12/02 02:55:38;;;;;;;17.67;12.63;;;;;;;;;;5028552;28;20294;-74
2020/12/02 02:58:03;;;;;;;16.83;12.20;;;;;;;;;;5039232;28;20182;-75
2020/12/02 03:00:31;;;;;;;17.63;11.47;;;;;;;;;;5032637;28;20217;-74
2020/12/02 03:02:57;;;;;;;21.73;14.07;;;;;;;;;;5029623;28;20674;-75
2020/12/02 03:05:22;;;;;;;17.67;13.27;;;;;;;;;;5027473;28;20177;-74
2020/12/02 03:07:54;;;;;;;17.27;12.30;;;;;;;;;;5037982;28;20242;-74
2020/12/02 03:10:21;;;;;;;17.57;13.17;;;;;;;;;;5029799;28;20181;-74
2020/12/02 03:12:47;;;;;;;18.87;12.00;;;;;;;;;;5030730;28;20232;-75
2020/12/02 03:15:12;;;;;;;19.30;12.87;;;;;;;;;;5028690;28;20581;-74
2020/12/02 03:17:37;;;;;;;21.03;13.03;;;;;;;;;;5036466;28;20174;-74
2020/12/02 03:20:10;;;;;;;17.87;12.37;;;;;;;;;;5033186;28;20205;-74
2020/12/02 03:22:35;;;;;;;18.37;12.27;;;;;;;;;;5029744;28;20238;-74
2020/12/02 03:25:01;;;;;;;19.63;13.93;;;;;;;;;;5027945;28;20313;-75
2020/12/02 03:27:26;;;;;;;18.73;12.40;;;;;;;;;;5032880;28;20235;-74
2020/12/02 03:29:51;;;;;;;20.90;13.70;;;;;;;;;;5030126;28;20264;-74
2020/12/02 03:32:17;;;;;;;18.40;12.50;;;;;;;;;;5027757;28;20410;-75
2020/12/02 03:34:42;;;;;;;20.20;13.47;;;;;;;;;;5026236;28;20205;-75
2020/12/02 03:37:08;;;;;;;22.17;13.20;;;;;;;;;;5029568;28;20644;-74
2020/12/02 03:39:33;;;;;;;18.00;12.37;;;;;;;;;;5027512;28;20526;-74
2020/12/02 03:41:58;;;;;;;19.23;12.70;;;;;;;;;;5029603;28;20209;-74
2020/12/02 03:44:23;;;;;;;23.50;13.20;;;;;;;;;;5026051;28;20174;-75
2020/12/02 03:46:48;;;;;;;18.10;13.53;;;;;;;;;;5031973;28;20720;-74
2020/12/02 03:49:14;;;;;;;19.00;12.87;;;;;;;;;;5029854;28;20595;-74
2020/12/02 03:51:39;;;;;;;17.00;12.13;;;;;;;;;;5028345;28;20177;-74
2020/12/02 03:54:04;;;;;;;17.97;11.90;;;;;;;;;;5028339;28;20190;-74
2020/12/02 03:56:29;;;;;;;18.17;12.50;;;;;;;;;;5034124;28;20182;-74
2020/12/02 03:58:55;;;;;;;19.23;12.30;;;;;;;;;;5026789;28;20543;-75
2020/12/02 04:01:20;;;;;;;18.80;12.53;;;;;;;;;;5027040;28;20193;-74
2020/12/02 04:03:45;;;;;;;18.33;12.10;;;;;;;;;;5026438;28;20186;-75
2020/12/02 04:06:10;;;;;;;23.30;14.17;;;;;;;;;;5025589;28;20177;-74
2020/12/02 04:08:37;;;;;;;18.60;13.17;;;;;;;;;;5037720;28;20235;-74
2020/12/02 04:11:02;;;;;;;19.97;13.00;;;;;;;;;;5028581;28;20174;-74
2020/12/02 04:13:27;;;;;;;23.00;13.57;;;;;;;;;;5028391;28;20661;-74
2020/12/02 04:15:52;;;;;;;21.57;13.37;;;;;;;;;;5025919;28;20264;-75
2020/12/02 04:18:17;;;;;;;19.87;13.03;;;;;;;;;;5028667;28;20247;-75
2020/12/02 04:20:42;;;;;;;17.90;11.77;;;;;;;;;;5028261;28;20743;-74
2020/12/02 04:23:08;;;;;;;19.73;12.60;;;;;;;;;;5027218;28;20193;-75
2020/12/02 04:25:33;;;;;;;21.47;12.57;;;;;;;;;;5028553;28;21820;-74
2020/12/02 04:27:58;;;;;;;19.27;12.97;;;;;;;;;;5034103;28;20182;-75
2020/12/02 04:30:23;;;;;;;19.97;13.00;;;;;;;;;;5027781;28;20647;-75
2020/12/02 04:32:49;;;;;;;17.90;12.40;;;;;;;;;;5029850;28;20307;-74
2020/12/02 04:35:14;;;;;;;17.40;11.47;;;;;;;;;;5029615;28;20218;-74
2020/12/02 04:37:39;;;;;;;19.83;12.33;;;;;;;;;;5031713;28;20182;-74
2020/12/02 04:40:10;;;;;;;18.73;13.30;;;;;;;;;;5030499;28;20188;-74
2020/12/02 04:42:39;;;;;;;17.60;12.33;;;;;;;;;;5033252;28;20197;-75
2020/12/02 04:45:06;;;;;;;20.47;13.57;;;;;;;;;;5034867;28;20190;-75
2020/12/02 04:47:35;;;;;;;19.77;12.60;;;;;;;;;;5051772;28;20232;-75
2020/12/02 04:50:16;;;;;;;21.07;13.13;;;;;;;;;;5034893;28;20282;-75
2020/12/02 04:52:45;;;;;;;21.60;13.43;;;;;;;;;;5038493;28;20720;-75
2020/12/02 04:55:10;;;;;;;21.37;14.23;;;;;;;;;;5035046;28;20285;-75
2020/12/02 04:57:35;;;;;;;20.40;13.60;;;;;;;;;;5029595;28;20623;-75
2020/12/02 05:00:20;;;;;;;20.77;12.90;;;;;;;;;;5029848;28;20185;-75
2020/12/02 05:02:47;;;;;;;18.77;12.77;;;;;;;;;;5027038;28;20189;-75
2020/12/02 05:05:13;;;;;;;19.00;13.50;;;;;;;;;;5027794;28;20186;-74
2020/12/02 05:07:38;;;;;;;19.47;13.43;;;;;;;;;;5030328;28;20177;-74
2020/12/02 05:10:08;;;;;;;23.50;14.03;;;;;;;;;;5027953;28;20564;-74
2020/12/02 05:12:45;;;;;;;20.73;13.90;;;;;;;;;;5025925;28;20296;-74
2020/12/02 05:15:20;;;;;;;22.33;14.03;;;;;;;;;;5030064;28;20251;-75
2020/12/02 05:18:00;;;;;;;24.27;15.37;;;;;;;;;;5022887;28;20575;-74
2020/12/02 05:20:25;;;;;;;21.23;13.50;;;;;;;;;;5025957;28;20173;-75
2020/12/02 05:22:51;;;;;;;20.90;13.10;;;;;;;;;;5026673;28;20198;-74
2020/12/02 05:25:16;;;;;;;22.03;13.10;;;;;;;;;;5026150;28;20231;-74
2020/12/02 05:27:42;;;;;;;22.40;14.02;;;;;;;;;;5029605;28;20694;-74
2020/12/02 05:30:34;;;;;;;21.87;13.47;;;;;;;;;;5027694;28;20235;-74
2020/12/02 05:33:00;;;;;;;21.30;14.00;;;;;;;;;;5025768;28;20217;-74
2020/12/02 05:35:30;;;;;;;23.90;13.90;;;;;;;;;;5026195;28;20212;-75
2020/12/02 05:37:55;;;;;;;22.13;13.60;;;;;;;;;;5026686;28;20188;-74
2020/12/02 05:40:21;;;;;;;24.13;14.27;;;;;;;;;;5027903;28;20181;-74
2020/12/02 05:42:51;;;;;;;25.07;15.17;;;;;;;;;;5024468;28;20209;-74
2020/12/02 05:45:20;;;;;;;20.43;13.67;;;;;;;;;;5025379;28;20746;-74
2020/12/02 05:47:49;;;;;;;24.43;14.23;;;;;;;;;;5034027;28;20266;-74
2020/12/02 05:50:15;;;;;;;22.30;13.77;;;;;;;;;;5031454;28;20326;-74
2020/12/02 05:52:43;;;;;;;22.20;13.90;;;;;;;;;;5030251;28;20214;-74
2020/12/02 05:55:30;;;;;;;22.10;13.50;;;;;;;;;;5030020;28;21475;-74
2020/12/02 05:57:55;;;;;;;19.23;13.07;;;;;;;;;;5044171;28;20182;-74
2020/12/02 06:00:21;;;;;;;20.97;13.70;;;;;;;;;;5031029;28;20239;-74
2020/12/02 06:02:46;;;;;;;23.10;14.77;;;;;;;;;;5030547;28;20206;-75
2020/12/02 06:05:12;;;;;;;21.63;13.83;;;;;;;;;;5029767;28;20197;-74
2020/12/02 06:07:44;;;;;;;22.80;14.27;;;;;;;;;;5033078;28;20232;-74
2020/12/02 06:10:11;;;;;;;22.83;13.70;;;;;;;;;;5031980;28;20186;-74
2020/12/02 06:12:40;;;;;;;24.67;14.93;;;;;;;;;;5031234;28;20225;-74
2020/12/02 06:15:15;;;;;;;24.57;14.07;;;;;;;;;;5029050;28;20714;-77
2020/12/02 06:17:40;;;;;;;23.13;13.67;;;;;;;;;;5033241;28;20254;-74
2020/12/02 06:20:06;;;;;;;21.97;14.27;;;;;;;;;;5029703;28;20745;-74
2020/12/02 06:22:48;;;;;;;23.42;14.13;;;;;;;;;;5029361;28;20750;-74
2020/12/02 06:25:32;;;;;;;22.87;14.37;;;;;;;;;;5030536;28;20185;-76
2020/12/02 06:27:57;;;;;;;26.83;15.40;;;;;;;;;;5031990;28;20263;-76
2020/12/02 06:30:22;;;;;;;29.23;15.43;;;;;;;;;;5032423;28;20189;-74
2020/12/02 06:32:58;;;;;;;21.40;13.97;;;;;;;;;;5031743;28;20221;-74
2020/12/02 06:35:23;;;;;;;23.37;13.77;;;;;;;;;;5028684;28;20205;-76
2020/12/02 06:38:07;;;;;;;22.70;14.43;;;;;;;;;;5031219;28;20200;-75
2020/12/02 06:40:32;;;;;;;24.40;14.23;;;;;;;;;;5045640;28;20621;-74
2020/12/02 06:43:03;;;;;;;21.97;15.23;;;;;;;;;;5030621;28;20293;-76
2020/12/02 06:45:31;;;;;;;24.13;16.17;;;;;;;;;;5029991;28;20190;-75
2020/12/02 06:47:59;;;;;;;72.80;35.33;;;;;;;;;;5047365;28;20626;-75
2020/12/02 06:50:33;;;;;;;76.13;34.87;;;;;;;;;;5031057;28;20677;-75
2020/12/02 06:53:31;;;;;;;41.40;22.87;;;;;;;;;;5029502;28;20197;-75
2020/12/02 06:55:57;;;;;;;33.63;19.77;;;;;;;;;;5025276;28;20189;-75
2020/12/02 06:58:22;;;;;;;34.97;20.57;;;;;;;;;;5034085;28;21067;-75
2020/12/02 07:00:51;;;;;;;30.33;17.03;;;;;;;;;;5029419;28;20824;-76
2020/12/02 07:03:32;;;;;;;27.80;16.73;;;;;;;;;;5029007;28;20214;-76
2020/12/02 07:06:09;;;;;;;28.17;15.47;;;;;;;;;;5028754;28;20186;-75
2020/12/02 07:08:35;;;;;;;22.63;14.07;;;;;;;;;;5032332;28;21956;-75
2020/12/02 07:11:18;;;;;;;29.30;16.73;;;;;;;;;;5029387;28;20182;-75
2020/12/02 07:13:44;;;;;;;35.33;19.90;;;;;;;;;;5028418;28;20793;-75
2020/12/02 07:16:09;;;;;;;43.53;26.83;;;;;;;;;;5031838;28;20190;-75
2020/12/02 07:18:35;;;;;;;38.43;21.83;;;;;;;;;;5041558;28;20235;-75
2020/12/02 07:21:16;;;;;;;27.73;16.43;;;;;;;;;;5028547;28;21391;-76
2020/12/02 07:23:41;;;;;;;26.63;15.80;;;;;;;;;;5046118;28;20213;-75
2020/12/02 07:26:07;;;;;;;35.50;22.10;;;;;;;;;;5030718;28;20186;-75
2020/12/02 07:28:32;;;;;;;36.83;21.60;;;;;;;;;;5027840;28;20182;-75
2020/12/02 07:30:57;;;;;;;34.13;18.07;;;;;;;;;;5028560;28;20182;-76
2020/12/02 07:33:27;;;;;;;35.80;18.80;;;;;;;;;;5033757;28;20232;-75
2020/12/02 07:36:02;;;;;;;30.53;18.53;;;;;;;;;;5029514;28;20244;-75
2020/12/02 07:38:27;;;;;;;35.83;19.37;;;;;;;;;;5027230;28;20185;-75
2020/12/02 07:40:52;;;;;;;30.10;18.00;;;;;;;;;;5027295;28;20665;-75
2020/12/02 07:43:26;;;;;;;36.07;19.23;;;;;;;;;;5029969;28;20194;-75
2020/12/02 07:45:54;;;;;;;30.83;18.80;;;;;;;;;;5027310;28;20179;-75
2020/12/02 07:48:26;;;;;;;31.67;19.73;;;;;;;;;;5028494;28;20667;-75
2020/12/02 07:50:57;;;;;;;28.23;17.37;;;;;;;;;;5028330;28;20401;-75
2020/12/02 07:54:01;;;;;;;31.50;17.93;;;;;;;;;;5029359;28;20202;-75
2020/12/02 07:56:28;;;;;;;26.13;15.90;;;;;;;;;;5011481;28;20178;-75
2020/12/02 07:58:54;;;;;;;26.80;15.87;;;;;;;;;;5035396;28;20182;-75
2020/12/02 08:01:35;;;;;;;31.57;16.93;;;;;;;;;;5033776;28;20217;-75
2020/12/02 08:04:12;;;;;;;36.63;17.23;;;;;;;;;;5031282;28;20941;-75
2020/12/02 08:06:41;;;;;;;25.83;16.70;;;;;;;;;;5028605;28;20185;-75
2020/12/02 08:09:06;;;;;;;27.00;16.77;;;;;;;;;;5032539;28;20189;-75
2020/12/02 08:11:32;;;;;;;24.00;14.57;;;;;;;;;;5027998;28;20185;-75
2020/12/02 08:13:57;;;;;;;27.50;15.63;;;;;;;;;;5028180;28;20462;-75
2020/12/02 08:16:22;;;;;;;27.77;16.80;;;;;;;;;;5045683;28;20181;-75
2020/12/02 08:18:52;;;;;;;25.83;15.02;;;;;;;;;;5028202;28;20626;-74
2020/12/02 08:21:19;;;;;;;25.67;15.57;;;;;;;;;;5026393;28;21053;-75
2020/12/02 08:24:02;;;;;;;22.80;14.37;;;;;;;;;;5030669;28;20589;-74
2020/12/02 08:26:29;;;;;;;24.27;14.67;;;;;;;;;;5026343;28;20186;-75
2020/12/02 08:29:00;;;;;;;24.07;15.87;;;;;;;;;;5030078;28;20182;-74
2020/12/02 08:31:26;;;;;;;21.90;14.70;;;;;;;;;;5027709;28;20692;-75
2020/12/02 08:34:10;;;;;;;23.07;14.40;;;;;;;;;;5027713;28;20218;-75
2020/12/02 08:36:37;;;;;;;25.53;14.30;;;;;;;;;;5032695;28;20530;-75
2020/12/02 08:39:02;;;;;;;24.70;13.90;;;;;;;;;;5028874;28;20883;-75
2020/12/02 08:41:37;;;;;;;22.80;14.53;;;;;;;;;;5037410;28;20265;-74
2020/12/02 08:44:12;;;;;;;23.33;15.07;;;;;;;;;;5025593;28;20184;-75
2020/12/02 08:46:55;;;;;;;21.23;13.87;;;;;;;;;;5029258;28;20196;-74
2020/12/02 08:49:23;;;;;;;22.27;14.30;;;;;;;;;;5042382;28;20181;-75
2020/12/02 08:51:49;;;;;;;22.23;14.00;;;;;;;;;;5026317;28;20267;-74
2020/12/02 08:54:15;;;;;;;25.73;14.97;;;;;;;;;;5022830;28;20746;-75
2020/12/02 08:56:40;;;;;;;20.53;14.03;;;;;;;;;;5026876;28;20655;-75
2020/12/02 08:59:07;;;;;;;22.07;14.20;;;;;;;;;;5026626;28;20776;-75
2020/12/02 09:01:32;;;;;;;20.73;13.83;;;;;;;;;;5027177;28;20178;-75
2020/12/02 09:03:57;;;;;;;18.73;12.57;;;;;;;;;;5025860;28;20192;-75
2020/12/02 09:06:23;;;;;;;19.63;13.40;;;;;;;;;;5028385;28;20213;-75
2020/12/02 09:08:49;;;;;;;20.40;14.23;;;;;;;;;;5025280;28;20198;-75
2020/12/02 09:11:17;;;;;;;22.77;13.10;;;;;;;;;;5024899;28;20194;-75
2020/12/02 09:13:42;;;;;;;26.13;14.80;;;;;;;;;;5033940;28;20224;-75
2020/12/02 09:16:07;;;;;;;20.03;13.53;;;;;;;;;;5031765;28;20198;-75
2020/12/02 09:18:33;;;;;;;23.10;14.73;;;;;;;;;;5031879;28;20554;-74
2020/12/02 09:20:58;;;;;;;23.20;14.73;;;;;;;;;;5028607;28;20312;-75
2020/12/02 09:23:23;;;;;;;25.47;15.17;;;;;;;;;;5030991;28;20201;-75
2020/12/02 09:25:48;;;;;;;22.13;14.20;;;;;;;;;;5031616;28;20245;-76
2020/12/02 09:28:13;;;;;;;23.57;14.43;;;;;;;;;;5036081;28;20190;-75
2020/12/02 09:30:38;;;;;;;22.60;13.63;;;;;;;;;;5032149;28;20989;-76
2020/12/02 09:33:04;;;;;;;21.60;13.73;;;;;;;;;;5030540;28;20205;-76
2020/12/02 09:35:29;;;;;;;22.00;13.63;;;;;;;;;;5030712;28;20201;-76
2020/12/02 09:37:54;;;;;;;23.47;14.77;;;;;;;;;;5035046;28;20204;-76
2020/12/02 09:40:20;;;;;;;22.00;14.03;;;;;;;;;;5033656;28;20182;-75
2020/12/02 09:42:53;;;;;;;23.40;14.07;;;;;;;;;;5036871;28;20548;-75
2020/12/02 09:45:24;;;;;;;25.60;14.10;;;;;;;;;;5034462;28;20196;-74
2020/12/02 09:47:50;;;;;;;20.57;13.03;;;;;;;;;;5032300;28;20276;-75
2020/12/02 09:50:15;;;;;;;20.70;13.57;;;;;;;;;;5031854;28;20184;-75
2020/12/02 09:52:45;;;;;;;24.83;14.53;;;;;;;;;;5025674;28;20201;-74
2020/12/02 09:55:12;;;;;;;21.83;13.63;;;;;;;;;;5027328;28;20285;-74
2020/12/02 09:57:37;;;;;;;21.40;13.57;;;;;;;;;;5030797;28;20644;-74
2020/12/02 10:00:06;;;;;;;21.37;14.03;;;;;;;;;;5025480;28;20180;-74
2020/12/02 10:02:49;;;;;;;21.70;14.23;;;;;;;;;;5027372;28;20201;-74
2020/12/02 10:05:33;;;;;;;22.87;14.10;;;;;;;;;;5028486;28;20694;-74
2020/12/02 10:08:05;;;;;;;24.83;15.10;;;;;;;;;;5032124;28;20675;-74
2020/12/02 10:10:33;;;;;;;22.93;13.43;;;;;;;;;;5028382;28;20496;-74
2020/12/02 10:13:01;;;;;;;21.43;13.43;;;;;;;;;;5029319;28;20267;-74
2020/12/02 10:15:37;;;;;;;19.67;13.60;;;;;;;;;;5025235;28;20780;-74
2020/12/02 10:18:20;;;;;;;21.00;13.90;;;;;;;;;;5026946;28;20674;-75
2020/12/02 10:20:54;;;;;;;20.80;13.90;;;;;;;;;;5026809;28;20255;-74
2020/12/02 10:23:21;;;;;;;22.93;14.03;;;;;;;;;;5027539;28;20683;-74
2020/12/02 10:26:01;;;;;;;25.97;14.40;;;;;;;;;;5025411;28;20185;-74
2020/12/02 10:28:27;;;;;;;19.80;13.53;;;;;;;;;;5029126;28;20246;-74
2020/12/02 10:30:55;;;;;;;20.23;13.80;;;;;;;;;;5025475;28;20268;-74
2020/12/02 10:33:38;;;;;;;22.43;14.07;;;;;;;;;;5026835;28;20254;-75
2020/12/02 10:36:04;;;;;;;25.70;14.53;;;;;;;;;;5028774;28;20670;-75
2020/12/02 10:38:41;;;;;;;21.30;13.93;;;;;;;;;;5030507;28;20185;-75
2020/12/02 10:41:18;;;;;;;21.20;14.20;;;;;;;;;;5026874;28;20187;-74
2020/12/02 10:43:54;;;;;;;25.00;14.20;;;;;;;;;;5031597;28;20224;-75
2020/12/02 10:46:38;;;;;;;26.17;14.97;;;;;;;;;;5025141;28;20193;-74
2020/12/02 10:49:06;;;;;;;23.60;14.77;;;;;;;;;;5030234;28;20678;-74
2020/12/02 10:51:36;;;;;;;26.73;16.00;;;;;;;;;;5029413;28;20622;-74
2020/12/02 10:54:03;;;;;;;24.17;14.70;;;;;;;;;;5028170;28;20241;-74
2020/12/02 10:56:28;;;;;;;22.03;14.40;;;;;;;;;;5031484;28;20193;-74
2020/12/02 10:58:54;;;;;;;24.73;15.53;;;;;;;;;;5030613;28;20181;-75
2020/12/02 11:01:21;;;;;;;24.13;15.30;;;;;;;;;;5030163;28;20181;-74
2020/12/02 11:03:46;;;;;;;22.67;15.50;;;;;;;;;;5031403;28;20515;-75
2020/12/02 11:06:22;;;;;;;24.10;15.30;;;;;;;;;;5028580;28;20308;-75
2020/12/02 11:08:47;;;;;;;21.77;14.43;;;;;;;;;;5030167;28;22028;-75
2020/12/02 11:11:12;;;;;;;23.40;14.93;;;;;;;;;;5030653;28;20186;-75
2020/12/02 11:13:57;;;;;;;24.87;15.87;;;;;;;;;;5031487;28;20450;-75
2020/12/02 11:16:27;;;;;;;23.93;14.40;;;;;;;;;;5029314;28;20872;-75
2020/12/02 11:19:18;;;;;;;25.53;16.47;;;;;;;;;;5030086;28;20671;-75
2020/12/02 11:21:43;;;;;;;24.60;15.80;;;;;;;;;;5029338;28;20205;-75
2020/12/02 11:24:18;;;;;;;24.23;15.57;;;;;;;;;;5029700;28;20253;-75
2020/12/02 11:26:44;;;;;;;23.17;14.77;;;;;;;;;;5029336;28;20794;-76
2020/12/02 11:29:11;;;;;;;24.37;15.43;;;;;;;;;;5034367;28;20495;-75
2020/12/02 11:31:55;;;;;;;23.50;14.53;;;;;;;;;;5028510;28;20186;-75
2020/12/02 11:34:29;;;;;;;24.70;14.73;;;;;;;;;;5029469;28;20220;-75
2020/12/02 11:37:00;;;;;;;25.20;16.40;;;;;;;;;;5032060;28;20185;-75
2020/12/02 11:39:33;;;;;;;22.00;14.07;;;;;;;;;;5028013;28;20189;-75
2020/12/02 11:41:58;;;;;;;26.03;15.93;;;;;;;;;;5028599;28;20201;-75
2020/12/02 11:44:43;;;;;;;24.40;14.83;;;;;;;;;;5027733;28;20193;-75
2020/12/02 11:47:27;;;;;;;25.83;15.03;;;;;;;;;;5027414;28;20208;-75
2020/12/02 11:49:55;;;;;;;23.97;15.37;;;;;;;;;;5029969;28;20189;-75
2020/12/02 11:52:36;;;;;;;24.80;14.80;;;;;;;;;;5030033;28;20205;-75
2020/12/02 11:55:04;;;;;;;22.90;13.80;;;;;;;;;;5028556;28;20628;-75
2020/12/02 11:57:29;;;;;;;22.70;13.87;;;;;;;;;;5028120;28;20185;-75
2020/12/02 11:59:56;;;;;;;24.97;14.37;;;;;;;;;;5045427;28;20182;-75
2020/12/02 12:02:38;;;;;;;21.73;13.40;;;;;;;;;;5030392;28;21371;-75
2020/12/02 12:05:10;;;;;;;23.40;13.40;;;;;;;;;;5030828;28;20190;-75
2020/12/02 12:07:45;;;;;;;21.50;12.63;;;;;;;;;;5031404;28;20197;-75
2020/12/02 12:10:18;;;;;;;23.90;13.77;;;;;;;;;;5028480;28;20193;-75
2020/12/02 12:12:56;;;;;;;19.50;13.13;;;;;;;;;;5030613;28;20635;-75
2020/12/02 12:15:21;;;;;;;20.20;13.10;;;;;;;;;;5029312;28;20279;-75
2020/12/02 12:17:47;;;;;;;24.27;14.83;;;;;;;;;;5030042;28;20656;-75
2020/12/02 12:20:16;;;;;;;21.33;13.27;;;;;;;;;;5047197;28;20840;-74
2020/12/02 12:22:41;;;;;;;22.63;14.13;;;;;;;;;;5031038;28;20228;-76
2020/12/02 12:25:08;;;;;;;20.75;13.25;;;;;;;;;;5030579;28;20276;-75
2020/12/02 12:27:33;;;;;;;22.53;14.17;;;;;;;;;;5032152;28;20685;-75
2020/12/02 12:29:58;;;;;;;21.23;14.07;;;;;;;;;;5029687;28;20178;-75
2020/12/02 12:32:30;;;;;;;22.50;13.53;;;;;;;;;;5032186;28;20355;-75
2020/12/02 12:34:58;;;;;;;22.60;14.20;;;;;;;;;;5027784;28;20342;-74
2020/12/02 12:37:38;;;;;;;22.03;13.47;;;;;;;;;;5029746;28;20189;-74
2020/12/02 12:40:21;;;;;;;21.70;13.80;;;;;;;;;;5031124;28;20581;-75
2020/12/02 12:42:47;;;;;;;22.60;13.37;;;;;;;;;;5032656;28;20208;-74
2020/12/02 12:45:17;;;;;;;26.73;16.43;;;;;;;;;;5029833;28;20182;-75
2020/12/02 12:47:44;;;;;;;23.00;14.73;;;;;;;;;;5045108;28;20209;-75
2020/12/02 12:50:11;;;;;;;24.23;14.67;;;;;;;;;;5029944;28;20217;-74
2020/12/02 12:52:37;;;;;;;21.60;14.20;;;;;;;;;;5027015;28;20198;-74
2020/12/02 12:55:02;;;;;;;21.63;15.20;;;;;;;;;;5025203;28;20694;-74
2020/12/02 12:57:28;;;;;;;23.40;15.23;;;;;;;;;;5025920;28;20174;-74
2020/12/02 12:59:57;;;;;;;22.60;14.70;;;;;;;;;;5027014;28;20527;-74
2020/12/02 13:02:24;;;;;;;25.90;16.43;;;;;;;;;;5030406;28;20972;-74
2020/12/02 13:04:49;;;;;;;24.97;15.50;;;;;;;;;;5035619;28;20182;-74
2020/12/02 13:07:16;;;;;;;25.27;16.77;;;;;;;;;;5033191;28;20571;-74
2020/12/02 13:09:54;;;;;;;28.10;15.60;;;;;;;;;;5028637;28;20235;-74
2020/12/02 13:12:22;;;;;;;31.43;16.13;;;;;;;;;;5027016;28;20214;-74
2020/12/02 13:15:12;;;;;;;24.47;15.23;;;;;;;;;;5030981;28;20269;-75
2020/12/02 13:17:56;;;;;;;28.27;16.00;;;;;;;;;;5028176;28;20214;-74
2020/12/02 13:20:23;;;;;;;30.50;17.23;;;;;;;;;;5029602;28;20662;-74
2020/12/02 13:23:07;;;;;;;28.27;16.83;;;;;;;;;;5027816;28;20367;-74
2020/12/02 13:25:35;;;;;;;29.23;16.43;;;;;;;;;;5026834;28;20608;-75
2020/12/02 13:28:09;;;;;;;26.00;16.17;;;;;;;;;;5033020;28;20185;-74
2020/12/02 13:30:48;;;;;;;28.20;16.87;;;;;;;;;;5025080;28;20190;-74
2020/12/02 13:33:22;;;;;;;33.63;18.70;;;;;;;;;;5028171;28;20201;-74
2020/12/02 13:35:48;;;;;;;31.23;17.90;;;;;;;;;;5025905;28;20261;-75
2020/12/02 13:38:14;;;;;;;30.90;19.23;;;;;;;;;;5043446;28;20276;-75
2020/12/02 13:40:40;;;;;;;30.63;17.27;;;;;;;;;;5028598;28;20534;-75
2020/12/02 13:43:06;;;;;;;31.47;18.17;;;;;;;;;;5029596;28;20216;-74
2020/12/02 13:45:31;;;;;;;29.30;18.03;;;;;;;;;;5027531;28;21038;-74
2020/12/02 13:47:57;;;;;;;30.70;18.47;;;;;;;;;;5028738;28;20178;-74
2020/12/02 13:50:25;;;;;;;33.40;17.93;;;;;;;;;;5028151;28;20212;-74
2020/12/02 13:52:56;;;;;;;30.43;17.87;;;;;;;;;;5026145;28;22335;-74
2020/12/02 13:55:24;;;;;;;29.83;16.27;;;;;;;;;;5026408;28;20214;-74
2020/12/02 13:57:49;;;;;;;26.53;15.43;;;;;;;;;;5030867;28;20659;-74
2020/12/02 14:00:26;;;;;;;34.17;18.50;;;;;;;;;;5027848;28;20203;-74
2020/12/02 14:02:57;;;;;;;30.47;17.37;;;;;;;;;;5030126;28;20209;-74
2020/12/02 14:05:22;;;;;;;34.73;18.53;;;;;;;;;;5028255;28;20197;-74
2020/12/02 14:07:49;;;;;;;29.67;16.90;;;;;;;;;;5031123;28;20190;-75
2020/12/02 14:10:15;;;;;;;33.50;18.13;;;;;;;;;;5030774;28;20196;-74
2020/12/02 14:12:41;;;;;;;36.00;17.70;;;;;;;;;;5032230;28;20213;-74
2020/12/02 14:15:08;;;;;;;39.07;18.87;;;;;;;;;;5035761;28;20205;-74
2020/12/02 14:17:33;;;;;;;35.17;18.87;;;;;;;;;;5032488;28;20364;-75
2020/12/02 14:19:58;;;;;;;32.13;17.63;;;;;;;;;;5038718;28;20321;-74
2020/12/02 14:22:25;;;;;;;36.07;18.53;;;;;;;;;;5035051;28;20259;-75
2020/12/02 14:24:52;;;;;;;34.27;19.07;;;;;;;;;;5034612;28;20554;-75
2020/12/02 14:27:18;;;;;;;31.13;17.80;;;;;;;;;;5043108;28;20186;-75
2020/12/02 14:29:43;;;;;;;29.83;17.57;;;;;;;;;;5039154;28;20284;-75